gordon.dewis.ca - Random musings from Gordon

Subscribe

Here we go again

April 11, 2008 @ 00:02 By: gordon Category: Weather

A few minutes ago I checked the terminal area forecast (TAF) for Ottawa for the next 24 hours or so:

TAF CYOW 110238Z 110324 32008KT P6SM BKN220
FM1000Z 03005KT P6SM BKN120
FM1400Z 08012KT 11/2SM -SN VV015 PROB30 1419 P6SM -FZRA -PL
FM1900Z 08012KT 4SM -SNRA BKN012 OVC050 TEMPO 1922 2SM -SN BKN008
FM2200Z 07012KT 11/2SM -RA BR BKN006 OVC012
RMK NXT FCST BY 06Z=

So, we can probably expect to see snow and rain, both individually and together, and maybe some freezing rain and ice pellets.

Only about 6 weeks until I go to Greece…

Leave a Reply

*